< < Back
Terminal Aerodrome Forecast


Current Version              Previous Versions:   1  2  3  4  5  6  7  8  9  

Terminal Aerodrome Forecast

525
FTUS42 KMLB 200500
TAFDAB
TAF
KDAB 200528Z 2006/2106 06007KT P6SM VCSH SCT040 BKN060
     FM201400 08006KT P6SM VCSH BKN040 BKN060
     FM202200 VRB03KT P6SM SCT040 BKN250=



Latest METAR

836
SAUS80 KWBC 202200 RRA
MTRDAB
METAR KDAB 202153Z 07007KT 10SM FEW029 SCT090 BKN130 BKN250 25/19 A2997
RMK AO2 SLP147 T02500194


USA.gov is the U.S. government's official web portal to all federal, state and local government web resources and services.